Time;durP1;ratioP1;P1;durP2;ratioP2;P2;SDS_P1;SDS_P2;PMS_P1;PMS_P2;Temp;Humidity;BMP_temperature;BMP_pressure;BME280_temperature;BME280_humidity;BME280_pressure;Samples;Min_cycle;Max_cycle;Signal;HPM_P1;HPM_P2
2023/06/18 00:00:11;;;;;;;21.80;19.60;;;;;;;14.25;100.00;98681.01;109443;1252;58232;-73
2023/06/18 00:02:57;;;;;;;23.10;20.80;;;;;;;14.23;100.00;98678.68;109190;1251;65454;-75
2023/06/18 00:05:23;;;;;;;22.50;19.60;;;;;;;14.22;100.00;98677.52;109504;1252;58905;-74
2023/06/18 00:07:50;;;;;;;22.40;20.00;;;;;;;14.21;100.00;98678.73;109489;1252;58291;-73
2023/06/18 00:10:16;;;;;;;20.90;18.60;;;;;;;14.20;100.00;98678.84;109476;1253;58218;-73
2023/06/18 00:12:43;;;;;;;22.00;19.80;;;;;;;14.17;100.00;98674.79;109509;1251;58276;-73
2023/06/18 00:15:10;;;;;;;22.40;20.00;;;;;;;14.15;100.00;98671.95;109465;1252;58221;-72
2023/06/18 00:17:36;;;;;;;21.90;19.70;;;;;;;14.12;100.00;98671.59;109472;1252;58856;-73
2023/06/18 00:20:03;;;;;;;22.30;19.60;;;;;;;14.11;100.00;98670.43;109475;1252;58249;-73
2023/06/18 00:22:31;;;;;;;20.80;18.70;;;;;;;14.10;100.00;98672.21;109483;1252;58132;-73
2023/06/18 00:24:58;;;;;;;21.50;19.00;;;;;;;14.08;100.00;98672.73;109517;1252;59027;-74
2023/06/18 00:27:24;;;;;;;20.90;18.90;;;;;;;14.05;100.00;98673.84;109497;1252;58222;-73
2023/06/18 00:29:50;;;;;;;21.00;18.70;;;;;;;14.03;100.00;98677.77;109484;1252;58385;-73
2023/06/18 00:32:17;;;;;;;21.10;19.00;;;;;;;14.01;100.00;98686.32;109514;1252;58238;-73
2023/06/18 00:34:46;;;;;;;20.30;18.20;;;;;;;14.00;100.00;98683.38;109422;1252;58029;-73
2023/06/18 00:37:13;;;;;;;20.70;18.50;;;;;;;13.99;100.00;98684.70;109489;1252;58083;-74
2023/06/18 00:39:39;;;;;;;19.30;17.50;;;;;;;13.97;100.00;98681.30;109508;1252;64043;-73
2023/06/18 00:42:07;;;;;;;19.80;17.90;;;;;;;13.94;100.00;98680.69;109535;1252;58175;-73
2023/06/18 00:44:33;;;;;;;20.20;18.10;;;;;;;13.91;100.00;98674.30;109449;1252;64029;-74
2023/06/18 00:47:00;;;;;;;20.20;17.50;;;;;;;13.90;100.00;98679.28;109495;1252;58127;-74
2023/06/18 00:49:27;;;;;;;19.60;17.50;;;;;;;13.89;100.00;98675.08;109528;1252;58293;-74
2023/06/18 00:51:53;;;;;;;21.70;19.50;;;;;;;13.87;100.00;98677.01;109500;1253;65348;-74
2023/06/18 00:54:20;;;;;;;19.40;17.50;;;;;;;13.84;100.00;98678.63;109545;1252;59129;-74
2023/06/18 00:56:53;;;;;;;19.80;17.80;;;;;;;13.82;100.00;98675.60;109462;1252;62814;-73
2023/06/18 00:59:22;;;;;;;19.70;17.50;;;;;;;13.82;100.00;98677.95;109506;1253;58215;-74
2023/06/18 01:01:53;;;;;;;18.90;17.10;;;;;;;13.81;100.00;98675.40;109473;1251;58403;-74
2023/06/18 01:04:26;;;;;;;20.50;18.40;;;;;;;13.79;100.00;98677.02;109524;1252;64060;-73
2023/06/18 01:06:54;;;;;;;20.70;17.70;;;;;;;13.77;100.00;98678.04;109508;1253;58646;-73
2023/06/18 01:09:23;;;;;;;17.90;16.20;;;;;;;13.75;100.00;98676.77;109457;1253;64062;-72
2023/06/18 01:11:53;;;;;;;21.50;17.50;;;;;;;13.73;100.00;98679.45;109401;1251;147101;-73
2023/06/18 01:14:22;;;;;;;18.70;16.30;;;;;;;13.71;100.00;98680.88;109507;1252;58336;-73
2023/06/18 01:16:49;;;;;;;18.20;16.40;;;;;;;13.66;100.00;98681.63;109537;1253;65638;-75
2023/06/18 01:19:40;;;;;;;18.00;15.90;;;;;;;13.61;100.00;98677.40;109477;1253;58923;-74
2023/06/18 01:22:26;;;;;;;18.60;15.40;;;;;;;13.58;100.00;98677.85;109535;1252;62801;-74
2023/06/18 01:24:57;;;;;;;18.20;16.20;;;;;;;13.55;100.00;98678.64;109480;1253;58127;-73
2023/06/18 01:27:27;;;;;;;20.50;16.40;;;;;;;13.54;100.00;98676.08;109580;1253;58208;-74
2023/06/18 01:29:54;;;;;;;;;;;;;;;13.53;100.00;98675.08;109522;1253;64044;-75
2023/06/18 01:32:21;;;;;;;18.40;16.50;;;;;;;13.50;100.00;98674.77;109538;1252;60194;-74
2023/06/18 01:34:47;;;;;;;17.90;15.60;;;;;;;13.48;100.00;98678.13;109471;1252;63764;-74
2023/06/18 01:37:39;;;;;;;18.90;15.20;;;;;;;13.46;100.00;98677.77;109506;1251;58143;-73
2023/06/18 01:40:39;;;;;;;17.10;15.30;;;;;;;13.43;100.00;98677.52;109481;1253;58441;-74
2023/06/18 01:43:26;;;;;;;18.10;16.20;;;;;;;13.38;100.00;98683.95;109509;1252;64001;-74
2023/06/18 01:45:57;;;;;;;15.90;14.20;;;;;;;13.34;100.00;98684.48;109519;1252;60195;-74
2023/06/18 01:48:26;;;;;;;16.50;14.20;;;;;;;13.29;100.00;98687.77;109466;1252;64151;-75
2023/06/18 01:50:55;;;;;;;17.80;15.90;;;;;;;13.24;100.00;98691.38;109349;1252;58227;-74
2023/06/18 01:53:23;;;;;;;16.60;14.90;;;;;;;13.20;100.00;98698.80;109509;1252;58230;-74
2023/06/18 01:55:52;;;;;;;17.90;16.00;;;;;;;13.15;100.00;98699.91;109491;1252;65212;-75
2023/06/18 01:58:21;;;;;;;18.00;15.40;;;;;;;13.12;100.00;98699.84;109499;1253;60120;-73
2023/06/18 02:00:48;;;;;;;16.00;14.40;;;;;;;13.10;100.00;98700.56;109498;1252;63356;-75
2023/06/18 02:03:15;;;;;;;14.30;12.90;;;;;;;13.07;100.00;98699.59;109349;1253;58152;-74
2023/06/18 02:05:41;;;;;;;14.90;13.30;;;;;;;13.01;100.00;98703.58;109543;1252;58145;-75
2023/06/18 02:08:08;;;;;;;17.80;15.80;;;;;;;12.98;100.00;98701.38;109534;1252;66566;-74
2023/06/18 02:10:35;;;;;;;19.70;16.20;;;;;;;12.96;100.00;98702.37;109507;1252;58272;-74
2023/06/18 02:13:01;;;;;;;17.20;15.00;;;;;;;12.99;100.00;98699.36;109512;1252;58798;-74
2023/06/18 02:15:28;;;;;;;17.30;15.20;;;;;;;12.99;100.00;98700.71;109218;1252;58473;-74
2023/06/18 02:17:54;;;;;;;18.40;15.80;;;;;;;12.97;100.00;98699.64;109529;1253;61515;-74
2023/06/18 02:20:21;;;;;;;20.10;16.20;;;;;;;12.93;100.00;98699.23;109508;1252;64035;-74
2023/06/18 02:22:47;;;;;;;18.60;16.70;;;;;;;12.84;100.00;98696.10;109546;1252;60139;-74
2023/06/18 02:25:14;;;;;;;18.50;16.60;;;;;;;12.71;100.00;98701.73;109493;1253;58475;-73
2023/06/18 02:27:40;;;;;;;17.90;16.10;;;;;;;12.66;100.00;98701.46;109520;1253;58170;-73
2023/06/18 02:30:08;;;;;;;19.10;17.10;;;;;;;12.66;100.00;98699.33;109531;1252;58526;-74
2023/06/18 02:32:36;;;;;;;19.20;17.10;;;;;;;12.66;100.00;98700.48;109505;1253;63808;-74
2023/06/18 02:35:04;;;;;;;19.20;17.10;;;;;;;12.69;100.00;98703.14;109545;1252;61372;-74
2023/06/18 02:37:31;;;;;;;20.30;18.20;;;;;;;12.71;100.00;98703.71;109530;1251;63857;-74
2023/06/18 02:39:57;;;;;;;18.10;16.20;;;;;;;12.72;100.00;98708.74;109501;1252;58142;-74
2023/06/18 02:42:24;;;;;;;19.80;16.60;;;;;;;12.75;100.00;98719.25;109492;1251;58305;-73
2023/06/18 02:44:50;;;;;;;20.20;17.20;;;;;;;12.76;100.00;98718.45;109485;1252;58135;-74
2023/06/18 02:47:17;;;;;;;18.40;16.50;;;;;;;12.77;100.00;98718.02;109524;1253;58510;-73
2023/06/18 02:49:43;;;;;;;19.60;16.90;;;;;;;12.79;100.00;98723.06;109523;1252;58224;-74
2023/06/18 02:52:10;;;;;;;21.60;18.30;;;;;;;12.79;100.00;98726.27;109522;1251;58146;-74
2023/06/18 02:54:37;;;;;;;21.00;18.10;;;;;;;12.78;100.00;98726.16;109546;1251;58267;-73
2023/06/18 02:57:04;;;;;;;17.90;15.90;;;;;;;12.78;100.00;98727.02;109525;1251;65497;-73
2023/06/18 02:59:31;;;;;;;18.70;16.70;;;;;;;12.77;100.00;98726.61;109572;1252;59102;-73
2023/06/18 03:01:57;;;;;;;19.80;17.70;;;;;;;12.78;100.00;98731.13;109520;1253;63824;-74
2023/06/18 03:04:23;;;;;;;20.80;16.20;;;;;;;12.80;100.00;98730.58;109505;1251;58348;-74
2023/06/18 03:06:50;;;;;;;20.00;17.60;;;;;;;12.83;100.00;98728.80;109489;1252;58259;-74
2023/06/18 03:09:16;;;;;;;18.50;16.70;;;;;;;12.85;100.00;98731.08;109531;1252;58604;-74
2023/06/18 03:11:43;;;;;;;21.60;17.10;;;;;;;12.89;100.00;98736.52;109135;1251;58345;-73
2023/06/18 03:14:09;;;;;;;17.50;15.70;;;;;;;12.92;100.00;98737.52;109491;1252;58396;-74
2023/06/18 03:16:36;;;;;;;19.20;17.30;;;;;;;12.98;100.00;98739.33;109476;1252;58152;-74
2023/06/18 03:19:03;;;;;;;20.10;17.00;;;;;;;13.10;100.00;98738.67;109544;1252;58217;-74
2023/06/18 03:21:29;;;;;;;19.30;15.70;;;;;;;13.25;100.00;98738.55;109554;1252;65217;-74
2023/06/18 03:23:56;;;;;;;18.40;16.50;;;;;;;13.42;100.00;98740.22;109554;1251;58154;-74
2023/06/18 03:26:22;;;;;;;17.20;15.40;;;;;;;13.61;100.00;98740.08;109508;1252;64111;-74
2023/06/18 03:28:49;;;;;;;18.10;16.20;;;;;;;13.86;100.00;98742.11;109494;1251;58169;-75
2023/06/18 03:31:15;;;;;;;17.40;15.70;;;;;;;14.67;100.00;98739.02;109502;1252;58507;-75
2023/06/18 03:33:42;;;;;;;16.60;14.90;;;;;;;15.76;100.00;98739.42;109608;1252;64253;-75
2023/06/18 03:36:09;;;;;;;15.60;14.00;;;;;;;16.67;100.00;98740.60;109556;1251;58718;-74
2023/06/18 03:38:35;;;;;;;15.10;13.50;;;;;;;17.45;100.00;98735.66;109241;1251;64085;-73
2023/06/18 03:41:02;;;;;;;14.60;13.00;;;;;;;18.14;100.00;98735.95;109485;1250;58402;-74
2023/06/18 03:43:30;;;;;;;13.40;12.20;;;;;;;18.78;100.00;98736.34;109626;1250;58314;-75
2023/06/18 03:45:57;;;;;;;14.00;12.50;;;;;;;19.42;100.00;98733.99;109580;1251;65250;-75
2023/06/18 03:48:25;;;;;;;13.40;11.60;;;;;;;20.00;100.00;98729.75;109555;1250;59233;-75
2023/06/18 03:50:51;;;;;;;12.50;11.20;;;;;;;20.58;98.77;98729.09;109515;1251;62818;-75
2023/06/18 03:53:17;;;;;;;12.30;11.10;;;;;;;21.02;94.31;98729.50;109554;1251;58172;-75
2023/06/18 03:55:45;;;;;;;12.30;11.10;;;;;;;20.94;91.68;98730.45;109542;1254;58094;-75
2023/06/18 03:58:12;;;;;;;14.20;12.80;;;;;;;20.46;91.05;98731.52;109540;1251;65208;-75
2023/06/18 04:00:38;;;;;;;12.20;11.00;;;;;;;19.91;91.97;98735.23;109580;1250;60665;-74
2023/06/18 04:03:05;;;;;;;12.50;11.40;;;;;;;19.49;92.04;98736.78;109622;1251;64038;-74
2023/06/18 04:05:32;;;;;;;13.10;11.90;;;;;;;19.61;91.43;98739.39;109525;1251;58202;-74
2023/06/18 04:07:58;;;;;;;13.00;11.50;;;;;;;19.46;91.04;98740.40;109579;1251;58207;-75
2023/06/18 04:10:25;;;;;;;12.70;11.30;;;;;;;19.31;91.30;98746.16;109571;1251;58356;-74
2023/06/18 04:12:51;;;;;;;12.00;10.90;;;;;;;19.62;89.23;98747.54;109591;1251;58168;-75
2023/06/18 04:15:18;;;;;;;12.40;11.20;;;;;;;19.42;88.81;98750.08;109561;1250;58474;-75
2023/06/18 04:17:44;;;;;;;11.30;10.20;;;;;;;19.52;88.08;98745.33;109545;1251;58316;-75
2023/06/18 04:20:12;;;;;;;11.20;10.10;;;;;;;19.49;88.18;98746.92;109586;1251;58226;-75
2023/06/18 04:22:39;;;;;;;11.30;10.30;;;;;;;20.15;85.87;98747.23;109550;1251;64947;-75
2023/06/18 04:25:06;;;;;;;11.40;10.20;;;;;;;20.98;83.23;98743.23;109457;1251;59902;-74
2023/06/18 04:27:32;;;;;;;10.10;9.20;;;;;;;21.69;79.58;98745.74;109586;1251;64080;-75
2023/06/18 04:29:59;;;;;;;10.60;9.50;;;;;;;22.24;77.36;98749.04;109531;1251;59057;-74
2023/06/18 04:32:25;;;;;;;9.40;8.50;;;;;;;22.74;76.13;98749.16;109587;1251;58213;-74
2023/06/18 04:34:52;;;;;;;10.20;9.00;;;;;;;23.16;73.79;98753.61;109572;1250;63717;-75
2023/06/18 04:37:18;;;;;;;10.30;9.30;;;;;;;22.91;73.86;98755.23;109566;1251;58665;-74
2023/06/18 04:39:46;;;;;;;9.80;8.80;;;;;;;22.60;74.12;98758.98;109404;1251;58315;-73
2023/06/18 04:42:12;;;;;;;9.80;8.90;;;;;;;22.27;74.35;98758.50;109503;1251;58225;-75
2023/06/18 04:44:39;;;;;;;10.20;9.20;;;;;;;22.16;73.79;98759.95;109523;1251;58085;-75
2023/06/18 04:47:05;;;;;;;11.00;9.90;;;;;;;22.12;73.15;98763.50;109595;1250;65008;-74
2023/06/18 04:49:32;;;;;;;11.90;9.60;;;;;;;22.03;73.03;98762.52;109581;1251;58930;-74
2023/06/18 04:51:59;;;;;;;11.70;10.70;;;;;;;22.21;72.95;98768.95;109560;1251;64547;-74
2023/06/18 04:54:26;;;;;;;10.60;9.60;;;;;;;22.32;72.86;98768.77;109581;1251;59269;-74
2023/06/18 04:56:52;;;;;;;11.80;10.70;;;;;;;22.21;72.65;98770.17;109566;1251;58460;-75
2023/06/18 04:59:19;;;;;;;10.10;9.10;;;;;;;22.17;72.53;98768.36;109586;1251;65222;-75
2023/06/18 05:01:45;;;;;;;10.10;9.10;;;;;;;22.30;71.43;98768.13;109563;1251;60133;-74
2023/06/18 05:04:12;;;;;;;10.50;9.50;;;;;;;22.56;69.81;98771.49;109567;1251;63756;-73
2023/06/18 05:06:39;;;;;;;10.90;9.80;;;;;;;22.83;69.44;98771.66;109570;1250;58185;-74
2023/06/18 05:09:05;;;;;;;11.60;10.60;;;;;;;23.52;67.51;98774.48;109604;1251;58302;-73
2023/06/18 05:11:32;;;;;;;11.90;10.70;;;;;;;24.05;66.17;98776.13;109423;1250;58274;-74
2023/06/18 05:14:00;;;;;;;11.20;9.90;;;;;;;24.13;65.45;98779.89;109616;1250;60144;-74
2023/06/18 05:16:27;;;;;;;11.30;9.90;;;;;;;23.70;66.09;98779.21;109612;1251;62961;-74
2023/06/18 05:18:53;;;;;;;10.90;10.00;;;;;;;23.35;66.94;98783.09;109593;1250;58228;-75
2023/06/18 05:21:20;;;;;;;11.90;10.50;;;;;;;23.07;67.61;98781.39;109289;1250;58290;-73
2023/06/18 05:23:46;;;;;;;12.40;11.20;;;;;;;22.74;67.67;98783.02;109602;1251;75009;-74
2023/06/18 05:26:13;;;;;;;12.40;11.30;;;;;;;22.44;67.68;98789.95;109519;1251;58137;-74
2023/06/18 05:28:40;;;;;;;13.50;12.40;;;;;;;22.21;68.26;98793.68;109594;1250;62840;-75
2023/06/18 05:31:06;;;;;;;12.60;11.40;;;;;;;22.24;68.04;98795.00;109576;1251;58247;-76
2023/06/18 05:33:33;;;;;;;12.40;11.30;;;;;;;22.68;67.21;98793.20;109467;1251;58282;-76
2023/06/18 05:35:59;;;;;;;13.70;12.40;;;;;;;23.32;66.29;98795.52;109560;1251;58163;-75
2023/06/18 05:38:26;;;;;;;11.90;10.70;;;;;;;23.99;65.43;98792.51;109621;1251;58171;-76
2023/06/18 05:40:52;;;;;;;13.80;12.50;;;;;;;24.45;64.61;98791.74;109580;1251;58272;-75
2023/06/18 05:43:19;;;;;;;12.40;11.20;;;;;;;25.12;63.40;98785.81;109533;1250;58167;-75
2023/06/18 05:45:45;;;;;;;10.90;10.00;;;;;;;25.26;62.26;98786.48;109590;1250;58222;-76
2023/06/18 05:48:14;;;;;;;11.20;10.20;;;;;;;24.78;61.16;98794.44;109616;1250;63766;-74
2023/06/18 05:50:41;;;;;;;12.50;10.60;;;;;;;24.43;61.65;98796.58;109631;1251;60667;-76
2023/06/18 05:53:08;;;;;;;11.20;10.20;;;;;;;24.36;61.74;98796.48;109593;1251;62822;-76
2023/06/18 05:55:35;;;;;;;11.30;10.40;;;;;;;24.82;60.61;98795.59;109567;1251;58535;-76
2023/06/18 05:58:01;;;;;;;9.50;8.70;;;;;;;25.51;59.92;98790.62;109578;1251;58226;-76
2023/06/18 06:00:28;;;;;;;9.80;9.00;;;;;;;26.06;59.02;98791.86;109579;1251;58142;-75
2023/06/18 06:02:54;;;;;;;9.40;8.50;;;;;;;26.53;58.17;98791.53;109570;1251;61452;-75
2023/06/18 06:05:21;;;;;;;9.30;8.60;;;;;;;26.92;56.88;98788.54;109563;1250;63205;-75
2023/06/18 06:07:48;;;;;;;9.80;8.90;;;;;;;26.97;55.03;98795.30;109551;1251;58112;-75
2023/06/18 06:10:17;;;;;;;9.40;8.60;;;;;;;26.78;55.06;98796.34;109603;1251;58154;-75
2023/06/18 06:12:43;;;;;;;8.30;7.60;;;;;;;27.08;55.12;98796.77;109595;1251;65207;-74
2023/06/18 06:15:10;;;;;;;9.10;8.20;;;;;;;27.26;54.75;98798.45;109614;1251;58465;-73
2023/06/18 06:17:37;;;;;;;8.50;7.80;;;;;;;26.79;54.44;98801.34;109608;1251;62811;-75
2023/06/18 06:20:05;;;;;;;7.90;7.00;;;;;;;26.54;55.09;98801.23;109609;1251;58265;-74
2023/06/18 06:22:31;;;;;;;7.60;6.70;;;;;;;26.40;53.95;98805.91;109606;1251;58483;-75
2023/06/18 06:24:58;;;;;;;8.00;7.30;;;;;;;25.71;54.98;98807.70;109268;1250;59046;-75
2023/06/18 06:27:24;;;;;;;8.00;7.30;;;;;;;25.24;56.00;98811.65;109612;1251;59960;-74
2023/06/18 06:29:51;;;;;;;8.80;8.00;;;;;;;24.98;57.14;98814.54;109597;1251;64066;-76
2023/06/18 06:32:17;;;;;;;8.90;8.10;;;;;;;24.77;57.89;98815.24;109603;1251;58103;-75
2023/06/18 06:34:44;;;;;;;9.20;8.30;;;;;;;24.45;58.14;98818.78;109582;1250;58124;-75
2023/06/18 06:37:10;;;;;;;9.60;8.70;;;;;;;23.94;59.07;98821.48;109598;1251;64061;-76
2023/06/18 06:39:37;;;;;;;9.50;8.60;;;;;;;23.65;60.26;98819.45;109607;1251;58606;-76
2023/06/18 06:42:04;;;;;;;8.90;8.10;;;;;;;23.41;60.30;98825.52;109619;1250;58525;-75
2023/06/18 06:44:31;;;;;;;9.60;8.70;;;;;;;23.29;61.11;98823.75;109548;1251;58191;-76
2023/06/18 06:46:58;;;;;;;9.00;8.30;;;;;;;23.54;60.97;98822.24;109605;1250;58524;-74
2023/06/18 06:49:24;;;;;;;10.40;9.50;;;;;;;23.84;60.83;98817.06;109552;1250;58149;-75
2023/06/18 06:51:54;;;;;;;10.20;9.30;;;;;;;24.44;60.22;98816.58;109602;1251;58434;-74
2023/06/18 06:54:21;;;;;;;10.30;9.30;;;;;;;24.73;59.52;98815.55;109568;1251;64030;-75
2023/06/18 06:56:48;;;;;;;10.40;9.10;;;;;;;24.71;59.40;98818.88;109548;1251;58227;-75
2023/06/18 06:59:15;;;;;;;11.20;10.20;;;;;;;24.74;59.00;98820.42;109605;1254;58173;-74
2023/06/18 07:01:43;;;;;;;11.20;9.80;;;;;;;24.84;59.02;98819.70;109620;1251;64900;-76
2023/06/18 07:04:10;;;;;;;12.80;11.20;;;;;;;25.32;58.16;98816.13;109597;1251;59938;-76
2023/06/18 07:06:38;;;;;;;12.10;10.90;;;;;;;25.63;57.81;98815.31;109576;1251;64217;-76
2023/06/18 07:09:06;;;;;;;13.10;10.90;;;;;;;25.83;57.27;98816.28;109618;1251;58163;-75
2023/06/18 07:11:36;;;;;;;11.50;10.20;;;;;;;26.15;57.09;98815.33;109377;1250;58200;-75
2023/06/18 07:14:03;;;;;;;10.40;9.40;;;;;;;26.50;56.28;98809.75;109601;1251;64958;-76
2023/06/18 07:16:30;;;;;;;10.10;9.20;;;;;;;26.58;55.42;98812.49;109633;1251;59511;-74
2023/06/18 07:18:57;;;;;;;11.20;10.20;;;;;;;26.62;55.34;98813.59;109539;1251;64042;-75
2023/06/18 07:21:23;;;;;;;10.00;9.10;;;;;;;26.65;54.79;98811.84;109595;1251;58106;-75
2023/06/18 07:23:50;;;;;;;10.20;9.30;;;;;;;26.54;53.91;98811.98;109411;1251;58413;-75
2023/06/18 07:26:16;;;;;;;10.70;9.00;;;;;;;26.59;54.40;98814.27;109573;1251;65231;-76
2023/06/18 07:28:43;;;;;;;9.90;9.00;;;;;;;26.74;54.31;98812.87;109643;1251;58159;-78
2023/06/18 07:31:09;;;;;;;11.70;10.30;;;;;;;26.66;54.38;98813.63;109575;1250;59020;-73
2023/06/18 07:33:36;;;;;;;10.20;9.20;;;;;;;26.48;54.53;98814.80;109538;1250;58192;-74
2023/06/18 07:36:02;;;;;;;9.70;8.80;;;;;;;26.16;54.53;98812.77;109628;1251;58225;-74
2023/06/18 07:38:29;;;;;;;8.90;8.10;;;;;;;26.00;55.21;98816.82;109658;1251;64016;-74
2023/06/18 07:40:55;;;;;;;7.60;7.00;;;;;;;26.04;55.50;98814.23;109604;1254;58101;-73
2023/06/18 07:43:22;;;;;;;9.00;8.00;;;;;;;26.00;55.23;98815.05;109632;1251;64044;-73
2023/06/18 07:45:48;;;;;;;8.70;7.90;;;;;;;26.11;55.02;98814.62;109606;1251;58614;-74
2023/06/18 07:48:15;;;;;;;9.00;8.10;;;;;;;26.03;54.27;98811.40;109605;1251;58395;-73
2023/06/18 07:50:42;;;;;;;8.50;7.60;;;;;;;25.95;54.44;98811.47;109609;1251;65313;-74
2023/06/18 07:53:08;;;;;;;8.40;7.40;;;;;;;25.79;54.05;98815.23;109611;1251;58617;-75
2023/06/18 07:55:35;;;;;;;8.40;7.60;;;;;;;25.67;54.99;98814.08;109660;1251;63876;-75
2023/06/18 07:58:01;;;;;;;10.00;9.00;;;;;;;25.71;55.25;98813.08;109530;1251;58161;-74
2023/06/18 08:00:29;;;;;;;9.10;8.30;;;;;;;25.81;55.57;98814.93;109593;1251;58143;-75
2023/06/18 08:02:56;;;;;;;10.90;9.80;;;;;;;25.90;55.42;98814.09;109449;1251;65232;-74
2023/06/18 08:05:22;;;;;;;9.80;8.90;;;;;;;25.81;55.16;98818.16;109584;1251;69983;-76
2023/06/18 08:07:49;;;;;;;9.10;8.20;;;;;;;25.89;55.02;98815.19;109581;1251;64063;-75
2023/06/18 08:10:15;;;;;;;7.30;6.60;;;;;;;25.96;54.29;98818.23;109632;1251;58549;-73
2023/06/18 08:12:42;;;;;;;6.80;6.20;;;;;;;25.93;53.82;98821.13;109581;1251;58238;-74
2023/06/18 08:15:10;;;;;;;7.70;7.00;;;;;;;25.99;53.89;98821.14;109572;1251;58147;-73
2023/06/18 08:17:36;;;;;;;6.40;5.50;;;;;;;26.14;53.98;98817.01;109570;1251;58816;-74
2023/06/18 08:20:04;;;;;;;6.80;6.20;;;;;;;26.27;53.62;98815.27;109410;1251;64100;-74
2023/06/18 08:22:30;;;;;;;7.30;6.60;;;;;;;26.37;52.79;98814.23;109596;1251;58512;-73
2023/06/18 08:24:57;;;;;;;6.70;5.90;;;;;;;26.30;52.73;98817.08;109603;1251;58218;-75
2023/06/18 08:27:23;;;;;;;5.50;5.00;;;;;;;26.16;52.52;98814.95;109573;1251;58162;-73
2023/06/18 08:29:50;;;;;;;5.50;5.00;;;;;;;26.15;51.54;98816.05;109285;1251;58268;-75
2023/06/18 08:32:16;;;;;;;5.00;4.60;;;;;;;26.25;51.87;98810.27;109551;1251;58263;-74
2023/06/18 08:34:45;;;;;;;4.70;4.40;;;;;;;26.59;51.70;98806.73;109399;1251;58165;-74
2023/06/18 08:37:12;;;;;;;4.90;4.50;;;;;;;26.86;51.41;98803.90;109592;1251;58137;-74
2023/06/18 08:39:39;;;;;;;5.60;5.20;;;;;;;27.09;50.67;98807.06;109559;1251;64966;-75
2023/06/18 08:42:06;;;;;;;5.40;5.00;;;;;;;27.32;49.74;98804.45;109582;1251;59806;-73
2023/06/18 08:44:34;;;;;;;5.90;5.40;;;;;;;27.37;48.44;98801.75;109558;1251;64638;-74
2023/06/18 08:47:05;;;;;;;6.40;5.90;;;;;;;27.28;48.21;98799.59;109584;1251;58146;-74
2023/06/18 08:49:33;;;;;;;5.00;4.70;;;;;;;27.23;48.25;98805.86;109593;1251;58252;-74
2023/06/18 08:52:05;;;;;;;5.80;5.30;;;;;;;27.02;48.67;98809.34;109586;1250;63819;-74
2023/06/18 08:54:33;;;;;;;5.50;5.10;;;;;;;26.80;49.12;98803.36;109615;1251;59869;-73
2023/06/18 08:57:15;;;;;;;5.30;4.90;;;;;;;26.50;49.03;98806.89;109576;1251;64243;-74
2023/06/18 08:59:44;;;;;;;5.20;4.40;;;;;;;26.14;49.33;98809.02;109561;1251;58148;-73
2023/06/18 09:02:15;;;;;;;5.50;5.00;;;;;;;25.87;49.53;98807.19;109570;1251;58188;-75
2023/06/18 09:04:42;;;;;;;5.70;5.20;;;;;;;25.68;49.98;98803.88;109604;1250;65264;-73
2023/06/18 09:07:09;;;;;;;5.50;5.10;;;;;;;25.44;49.94;98806.85;109607;1250;60102;-73
2023/06/18 09:09:36;;;;;;;5.10;4.70;;;;;;;25.16;50.36;98807.95;109553;1251;64077;-74
2023/06/18 09:12:03;;;;;;;5.60;5.10;;;;;;;25.04;51.27;98806.52;109541;1251;58191;-73
2023/06/18 09:14:30;;;;;;;6.30;5.80;;;;;;;24.75;51.40;98814.41;109628;1251;58058;-74
2023/06/18 09:16:57;;;;;;;6.20;5.70;;;;;;;24.35;52.23;98808.16;109429;1251;63683;-74
2023/06/18 09:19:24;;;;;;;5.80;5.40;;;;;;;24.18;52.98;98808.08;109594;1250;58590;-73
2023/06/18 09:21:51;;;;;;;6.40;5.90;;;;;;;24.03;53.40;98809.58;109571;1251;63793;-75
2023/06/18 09:24:22;;;;;;;6.50;5.80;;;;;;;23.97;53.94;98807.16;109552;1251;58401;-73
2023/06/18 09:27:00;;;;;;;6.30;5.50;;;;;;;24.02;54.43;98811.58;109586;1251;58528;-73
2023/06/18 09:29:29;;;;;;;7.10;6.10;;;;;;;24.47;54.75;98806.34;109589;1250;63839;-73
2023/06/18 09:31:56;;;;;;;5.80;5.40;;;;;;;24.82;54.20;98803.73;109596;1254;60704;-73
2023/06/18 09:34:22;;;;;;;5.70;5.30;;;;;;;24.89;53.44;98801.52;109598;1251;64154;-74
2023/06/18 09:36:50;;;;;;;6.30;5.80;;;;;;;24.84;53.04;98802.91;109597;1251;58118;-73
2023/06/18 09:39:25;;;;;;;7.10;6.10;;;;;;;24.58;52.96;98798.83;109619;1251;58236;-74
2023/06/18 09:41:53;;;;;;;6.30;5.80;;;;;;;24.27;53.58;98796.15;109259;1251;64915;-74
2023/06/18 09:44:22;;;;;;;5.90;5.40;;;;;;;24.18;54.29;98797.69;109498;1251;60998;-74
2023/06/18 09:46:55;;;;;;;6.40;5.80;;;;;;;24.51;54.57;98797.00;109599;1251;64157;-75
2023/06/18 09:49:23;;;;;;;6.90;6.30;;;;;;;24.65;53.96;98791.04;109620;1250;58653;-74
2023/06/18 09:51:50;;;;;;;5.80;5.30;;;;;;;24.53;53.82;98790.40;109553;1251;58298;-75
2023/06/18 09:54:18;;;;;;;7.10;5.60;;;;;;;24.48;54.04;98786.50;109589;1250;64873;-74
2023/06/18 09:57:02;;;;;;;6.30;5.80;;;;;;;24.56;54.04;98785.52;109632;1250;58818;-74
2023/06/18 09:59:29;;;;;;;5.50;5.10;;;;;;;24.62;53.60;98781.91;109368;1251;63782;-75
2023/06/18 10:01:56;;;;;;;5.60;5.20;;;;;;;24.70;53.71;98777.06;109577;1250;58197;-75
2023/06/18 10:04:25;;;;;;;5.50;5.10;;;;;;;24.93;53.76;98775.58;109622;1250;58173;-74
2023/06/18 10:06:58;;;;;;;6.10;5.60;;;;;;;25.16;53.56;98772.63;109580;1250;64918;-74
2023/06/18 10:09:40;;;;;;;5.50;5.10;;;;;;;25.33;52.51;98773.81;109563;1251;60140;-76
2023/06/18 10:12:07;;;;;;;6.00;5.50;;;;;;;25.28;52.08;98776.48;109574;1251;63739;-74
2023/06/18 10:14:34;;;;;;;5.50;5.10;;;;;;;25.31;52.05;98780.47;109606;1250;58403;-73
2023/06/18 10:17:14;;;;;;;5.90;5.30;;;;;;;25.47;51.91;98775.80;109613;1250;58165;-74
2023/06/18 10:19:59;;;;;;;5.80;5.30;;;;;;;25.92;51.96;98772.46;109581;1250;65345;-75
2023/06/18 10:22:28;;;;;;;5.40;4.90;;;;;;;26.48;51.17;98772.50;109596;1250;58903;-73
2023/06/18 10:25:06;;;;;;;6.00;5.40;;;;;;;26.67;49.68;98767.24;109642;1250;64168;-73
2023/06/18 10:27:33;;;;;;;7.00;6.40;;;;;;;26.42;48.87;98766.22;109572;1251;58174;-73
2023/06/18 10:30:01;;;;;;;6.00;5.50;;;;;;;26.11;48.82;98764.30;109627;1250;58195;-75
2023/06/18 10:32:29;;;;;;;5.70;5.20;;;;;;;26.00;49.58;98767.80;109604;1250;63697;-74
2023/06/18 10:34:58;;;;;;;6.20;5.80;;;;;;;25.97;49.08;98767.86;109638;1250;60112;-74
2023/06/18 10:37:26;;;;;;;6.60;6.10;;;;;;;25.84;48.98;98767.73;109611;1250;64030;-74
2023/06/18 10:39:54;;;;;;;7.30;6.70;;;;;;;25.74;49.89;98768.63;109592;1250;58128;-74
2023/06/18 10:42:20;;;;;;;5.80;5.40;;;;;;;25.74;49.56;98764.55;109634;1250;58162;-73
2023/06/18 10:44:47;;;;;;;5.60;5.20;;;;;;;25.79;49.19;98770.98;109617;1251;63861;-75
2023/06/18 10:47:19;;;;;;;5.10;4.70;;;;;;;25.75;48.29;98770.55;109663;1250;58231;-74
2023/06/18 10:50:07;;;;;;;6.70;6.10;;;;;;;25.73;48.05;98767.02;109614;1250;64133;-74
2023/06/18 10:52:49;;;;;;;5.10;4.80;;;;;;;25.65;47.80;98762.39;109634;1250;58301;-75
2023/06/18 10:55:35;;;;;;;5.30;4.10;;;;;;;25.77;47.72;98765.94;109605;1250;58092;-74
2023/06/18 10:58:03;;;;;;;4.30;3.90;;;;;;;26.04;47.36;98763.13;109577;1250;64029;-75
2023/06/18 11:00:36;;;;;;;4.20;3.90;;;;;;;26.27;45.73;98763.61;109624;1251;59026;-74
2023/06/18 11:03:05;;;;;;;4.30;4.00;;;;;;;26.34;45.05;98766.60;109584;1250;64087;-75
2023/06/18 11:05:31;;;;;;;4.80;4.40;;;;;;;26.11;45.08;98763.86;109629;1250;58118;-75
2023/06/18 11:08:00;;;;;;;5.30;4.90;;;;;;;25.79;45.19;98764.61;109642;1250;58198;-74
2023/06/18 11:10:36;;;;;;;5.40;5.00;;;;;;;25.52;45.75;98759.06;109368;1251;65538;-75
2023/06/18 11:13:04;;;;;;;4.90;4.60;;;;;;;25.32;46.24;98763.23;109637;1250;58837;-74
2023/06/18 11:15:31;;;;;;;5.50;5.00;;;;;;;25.54;47.13;98759.11;109560;1251;62804;-74
2023/06/18 11:18:01;;;;;;;5.20;4.80;;;;;;;26.07;47.41;98756.65;109567;1250;58288;-74